Time;durP1;ratioP1;P1;durP2;ratioP2;P2;SDS_P1;SDS_P2;PMS_P1;PMS_P2;Temp;Humidity;BMP_temperature;BMP_pressure;BME280_temperature;BME280_humidity;BME280_pressure;Samples;Min_cycle;Max_cycle;Signal;HPM_P1;HPM_P2
2023/11/21 01:51:02;;;;;;;2.17;0.90;;;17.60;55.90;;;;;;6176678;23;20213;-81
2023/11/21 01:53:28;;;;;;;1.70;1.00;;;17.60;55.80;;;;;;6157710;23;20559;-82
2023/11/21 01:55:54;;;;;;;4.45;1.30;;;17.60;55.90;;;;;;6135059;23;20209;-81
2023/11/21 01:58:20;;;;;;;2.40;1.05;;;17.60;55.80;;;;;;6159210;23;20590;-81
2023/11/21 02:00:45;;;;;;;2.33;1.20;;;17.60;55.90;;;;;;6159399;23;20195;-82
2023/11/21 02:03:12;;;;;;;2.90;1.27;;;17.60;55.80;;;;;;6159424;23;20586;-81
2023/11/21 02:05:37;;;;;;;1.55;1.08;;;17.60;55.90;;;;;;6184994;23;20135;-81
2023/11/21 02:08:04;;;;;;;1.80;1.10;;;17.60;55.80;;;;;;6160334;23;20522;-81
2023/11/21 02:10:30;;;;;;;4.25;1.23;;;17.50;55.70;;;;;;6187492;23;20127;-81
2023/11/21 02:12:56;;;;;;;1.67;1.13;;;17.50;55.80;;;;;;6160316;23;20209;-82
2023/11/21 02:15:26;;;;;;;1.52;1.00;;;17.50;55.90;;;;;;6186604;23;20209;-82
2023/11/21 02:17:53;;;;;;;1.67;1.02;;;17.50;55.90;;;;;;6161212;23;20171;-82
2023/11/21 02:20:20;;;;;;;2.38;1.10;;;17.50;56.00;;;;;;6187208;23;20227;-81
2023/11/21 02:56:43;;;;;;;2.03;1.20;;;17.50;55.80;;;;;;6173866;23;20717;-80
2023/11/21 02:59:09;;;;;;;1.75;0.95;;;17.50;56.00;;;;;;6187425;23;20166;-81
2023/11/21 03:01:35;;;;;;;1.20;1.00;;;17.50;56.00;;;;;;6186688;23;20126;-83
2023/11/21 03:04:01;;;;;;;1.50;1.20;;;17.50;56.00;;;;;;6160733;23;20142;-81
2023/11/21 03:06:27;;;;;;;2.65;1.10;;;17.50;56.00;;;;;;6160965;23;20155;-82
2023/11/21 03:08:53;;;;;;;1.92;1.10;;;17.50;55.90;;;;;;6186542;23;21105;-82
2023/11/21 03:11:19;;;;;;;3.60;1.30;;;17.50;55.90;;;;;;6186665;23;20139;-82
2023/11/21 03:13:44;;;;;;;3.00;1.30;;;17.50;55.90;;;;;;6187013;23;20141;-82
2023/11/21 03:16:10;;;;;;;2.85;1.13;;;17.50;55.90;;;;;;6160683;23;20257;-81
2023/11/21 03:18:37;;;;;;;2.63;1.20;;;17.50;56.00;;;;;;6185343;23;20626;-82
2023/11/21 03:21:03;;;;;;;2.45;1.25;;;17.50;56.00;;;;;;6135709;23;20513;-82
2023/11/21 03:23:31;;;;;;;4.00;1.10;;;17.50;56.00;;;;;;6160606;23;20135;-82
2023/11/21 03:25:57;;;;;;;1.90;1.13;;;17.50;55.90;;;;;;6086701;23;20432;-82
2023/11/21 03:28:23;;;;;;;1.85;1.30;;;17.50;56.00;;;;;;6160259;23;20131;-82
2023/11/21 03:30:49;;;;;;;2.85;1.20;;;17.50;55.90;;;;;;6186431;23;20581;-82
2023/11/21 03:33:15;;;;;;;1.60;1.00;;;17.50;55.90;;;;;;6134858;23;20143;-82
2023/11/21 03:35:41;;;;;;;1.40;1.17;;;17.50;55.80;;;;;;6185683;23;20195;-82
2023/11/21 03:38:07;;;;;;;1.73;1.10;;;17.50;55.90;;;;;;6135770;23;20470;-82
2023/11/21 03:40:33;;;;;;;2.63;1.17;;;17.50;55.80;;;;;;6185935;23;20131;-81
2023/11/21 03:42:59;;;;;;;1.63;1.17;;;17.50;55.90;;;;;;6185667;23;20572;-81
2023/11/21 03:45:24;;;;;;;1.45;1.00;;;17.50;55.90;;;;;;6159742;23;20554;-82
2023/11/21 03:47:50;;;;;;;2.95;1.13;;;17.50;56.00;;;;;;6134958;23;20140;-81
2023/11/21 03:50:16;;;;;;;1.63;1.20;;;17.50;55.90;;;;;;6159773;23;20642;-81
2023/11/21 03:52:42;;;;;;;1.35;0.75;;;17.50;55.80;;;;;;6134992;23;20170;-82
2023/11/21 03:55:08;;;;;;;1.20;1.00;;;17.50;56.00;;;;;;6159066;23;20146;-82
2023/11/21 03:57:34;;;;;;;2.60;1.10;;;17.40;56.00;;;;;;6159336;23;20265;-81
2023/11/21 03:59:59;;;;;;;2.17;1.00;;;17.50;56.00;;;;;;6186125;23;20154;-82
2023/11/21 04:02:26;;;;;;;1.10;1.00;;;17.40;55.90;;;;;;6159463;23;20151;-81
2023/11/21 04:04:51;;;;;;;2.67;1.45;;;17.50;56.00;;;;;;6185144;23;20138;-81
2023/11/21 04:07:17;;;;;;;2.35;1.38;;;17.40;56.00;;;;;;6160157;23;20210;-82
2023/11/21 04:09:43;;;;;;;2.47;1.08;;;17.40;56.00;;;;;;6185868;23;20562;-82
2023/11/21 04:33:46;;;;;;;2.72;1.30;;;17.40;55.90;;;;;;6163543;23;20465;-81
2023/11/21 04:36:12;;;;;;;1.05;0.95;;;17.40;56.00;;;;;;6159319;23;20613;-81
2023/11/21 04:38:37;;;;;;;1.90;0.95;;;17.40;55.80;;;;;;6185474;23;20571;-81
2023/11/21 04:41:03;;;;;;;1.13;0.82;;;17.50;55.90;;;;;;6185577;23;20506;-81
2023/11/21 04:43:29;;;;;;;1.30;1.10;;;17.40;55.90;;;;;;6185481;23;20447;-81
2023/11/21 04:45:55;;;;;;;1.48;1.25;;;17.40;56.00;;;;;;6185333;23;20162;-81
2023/11/21 04:48:20;;;;;;;1.15;0.93;;;17.50;55.80;;;;;;6159911;23;20579;-81
2023/11/21 04:50:46;;;;;;;2.55;1.33;;;17.40;55.90;;;;;;6185423;23;20131;-82
2023/11/21 04:53:14;;;;;;;2.33;1.20;;;17.40;56.00;;;;;;6159835;23;20466;-82
2023/11/21 04:55:41;;;;;;;2.45;1.35;;;17.40;56.00;;;;;;6185681;23;20193;-82
2023/11/21 04:58:11;;;;;;;1.45;1.10;;;17.40;56.00;;;;;;6159532;23;20134;-82
2023/11/21 05:00:36;;;;;;;2.50;1.30;;;17.40;56.00;;;;;;6160719;23;20554;-82
2023/11/21 05:03:03;;;;;;;1.60;1.00;;;17.40;56.00;;;;;;6159483;23;20134;-82
2023/11/21 05:05:30;;;;;;;1.55;0.98;;;17.40;56.00;;;;;;6185479;23;20547;-82
2023/11/21 05:36:45;;;;;;;2.97;1.23;;;17.40;56.00;;;;;;6167756;23;21539;-82
2023/11/21 05:56:04;;;;;;;1.50;0.90;;;17.40;56.00;;;;;;6171653;23;20198;-81
2023/11/21 05:58:30;;;;;;;1.30;1.00;;;17.40;56.00;;;;;;6185120;23;20163;-82
2023/11/21 06:00:57;;;;;;;1.30;1.10;;;17.40;55.80;;;;;;6158322;23;20162;-81
2023/11/21 06:08:34;;;;;;;1.83;1.10;;;17.40;55.90;;;;;;6170322;23;20205;-82
2023/11/21 06:11:00;;;;;;;1.60;0.90;;;17.40;56.00;;;;;;6188850;23;20161;-82
2023/11/21 06:13:26;;;;;;;1.27;0.95;;;17.40;56.00;;;;;;6215584;23;20135;-82
2023/11/21 06:15:52;;;;;;;1.98;1.00;;;17.30;56.00;;;;;;6188652;23;20170;-82
2023/11/21 06:18:19;;;;;;;1.23;0.95;;;17.30;55.90;;;;;;6188887;23;20142;-82
2023/11/21 06:20:46;;;;;;;1.08;0.95;;;17.40;55.90;;;;;;6164383;23;20131;-82
2023/11/21 06:23:11;;;;;;;2.35;0.90;;;17.30;55.90;;;;;;6188602;23;20134;-82
2023/11/21 06:25:37;;;;;;;2.08;0.82;;;17.40;55.80;;;;;;6164029;23;20465;-83
2023/11/21 06:28:03;;;;;;;1.42;0.90;;;17.30;55.80;;;;;;6189543;23;20142;-82
2023/11/21 06:30:29;;;;;;;1.70;1.00;;;17.40;55.80;;;;;;6189480;23;20269;-82
2023/11/21 06:32:56;;;;;;;1.88;1.05;;;17.40;55.80;;;;;;6164806;23;20134;-82
2023/11/21 06:35:22;;;;;;;1.13;0.80;;;17.40;55.80;;;;;;6215857;23;20126;-83
2023/11/21 06:37:48;;;;;;;1.20;0.90;;;17.40;55.90;;;;;;6215323;23;20135;-82
2023/11/21 06:40:15;;;;;;;2.22;1.10;;;17.40;55.90;;;;;;6189478;23;20145;-83
2023/11/21 06:42:40;;;;;;;2.45;1.10;;;17.40;56.00;;;;;;6164814;23;20137;-82
2023/11/21 06:45:10;;;;;;;1.88;1.10;;;17.40;56.00;;;;;;6164669;23;20213;-82
2023/11/21 06:47:36;;;;;;;1.02;0.73;;;17.40;56.00;;;;;;6215935;23;20145;-82
2023/11/21 06:50:02;;;;;;;1.23;0.82;;;17.40;56.00;;;;;;6216043;23;20142;-82
2023/11/21 06:52:27;;;;;;;2.33;1.10;;;17.30;55.80;;;;;;6215554;23;20562;-82
2023/11/21 06:54:53;;;;;;;2.45;0.93;;;17.40;55.90;;;;;;6215948;23;20162;-81
2023/11/21 06:57:19;;;;;;;1.50;1.05;;;17.40;55.70;;;;;;6214952;23;20628;-82
2023/11/21 06:59:44;;;;;;;2.05;1.23;;;17.40;56.40;;;;;;6188946;23;20465;-82
2023/11/21 07:02:10;;;;;;;2.55;1.00;;;17.40;55.80;;;;;;6217208;23;20558;-81
2023/11/21 07:04:38;;;;;;;1.55;1.00;;;17.40;55.80;;;;;;6217399;23;20554;-82
2023/11/21 07:07:04;;;;;;;1.63;0.93;;;17.30;55.90;;;;;;6164299;23;20474;-82
2023/11/21 07:09:30;;;;;;;1.45;1.15;;;17.30;55.80;;;;;;6190407;23;20189;-83
2023/11/21 07:22:28;;;;;;;1.70;1.10;;;17.50;55.20;;;;;;6176096;23;20210;-81
2023/11/21 07:24:56;;;;;;;1.55;0.98;;;17.50;55.30;;;;;;6184164;23;20246;-82
2023/11/21 07:27:37;;;;;;;2.10;1.00;;;17.50;55.10;;;;;;6160121;23;20131;-81
2023/11/21 07:30:04;;;;;;;1.45;1.10;;;17.50;55.00;;;;;;6134241;23;20161;-82
2023/11/21 07:32:31;;;;;;;1.13;1.00;;;17.60;54.80;;;;;;6160389;23;20127;-82
2023/11/21 07:37:28;;;;;;;1.10;1.00;;;17.60;54.60;;;;;;6247129;23;20193;-82
2023/11/21 07:39:57;;;;;;;3.58;1.00;;;17.60;54.60;;;;;;6224037;23;20216;-81
2023/11/21 07:42:24;;;;;;;1.08;0.90;;;17.70;54.30;;;;;;6174655;23;20179;-81
2023/11/21 07:44:52;;;;;;;3.40;0.88;;;17.80;53.90;;;;;;6226024;23;20134;-81
2023/11/21 08:00:21;;;;;;;1.00;0.80;;;17.90;53.90;;;;;;6181658;23;20210;-83
2023/11/21 08:02:46;;;;;;;1.13;0.90;;;17.90;53.80;;;;;;6163534;23;20131;-82
2023/11/21 08:05:12;;;;;;;1.08;0.80;;;17.90;53.80;;;;;;6189094;23;20154;-82
2023/11/21 08:07:38;;;;;;;0.98;0.80;;;18.00;53.80;;;;;;6164042;23;20562;-83
2023/11/21 08:10:05;;;;;;;1.55;0.93;;;18.00;53.60;;;;;;6163158;23;20199;-83
2023/11/21 08:12:31;;;;;;;0.88;0.75;;;18.00;53.30;;;;;;6162675;23;20571;-83
2023/11/21 08:14:57;;;;;;;0.98;0.88;;;18.00;53.40;;;;;;6163464;23;20132;-83
2023/11/21 08:17:23;;;;;;;0.80;0.80;;;18.00;53.60;;;;;;6164230;23;20166;-83
2023/11/21 08:19:51;;;;;;;1.00;0.80;;;18.00;53.50;;;;;;6163225;23;20131;-83
2023/11/21 08:22:17;;;;;;;1.02;0.88;;;18.00;53.60;;;;;;6188799;23;20134;-82
2023/11/21 08:24:46;;;;;;;4.57;1.00;;;18.00;53.90;;;;;;6189034;23;20141;-83
2023/11/21 08:27:15;;;;;;;2.45;0.90;;;18.00;53.90;;;;;;6136710;23;20154;-82
2023/11/21 08:29:42;;;;;;;2.30;1.10;;;18.00;54.20;;;;;;6138623;23;20478;-82
2023/11/21 08:32:07;;;;;;;1.25;1.02;;;17.90;54.10;;;;;;6165255;23;20139;-81
2023/11/21 08:34:34;;;;;;;1.65;1.00;;;18.00;53.90;;;;;;6165987;23;20143;-83
2023/11/21 08:37:00;;;;;;;2.17;1.05;;;18.00;53.80;;;;;;6164633;23;20163;-82
2023/11/21 08:39:30;;;;;;;4.00;0.90;;;18.00;53.60;;;;;;6192724;23;20131;-82
2023/11/21 08:41:56;;;;;;;1.05;0.90;;;18.00;53.90;;;;;;6117337;23;20229;-82
2023/11/21 08:44:30;;;;;;;2.20;0.98;;;18.00;53.90;;;;;;6193553;23;20153;-83
2023/11/21 08:46:55;;;;;;;0.75;0.70;;;18.10;53.20;;;;;;6143453;23;20158;-82
2023/11/21 08:49:21;;;;;;;1.27;0.80;;;18.10;53.80;;;;;;6168768;23;20135;-82
2023/11/21 08:51:47;;;;;;;0.80;0.68;;;18.00;53.60;;;;;;6169142;23;20140;-83
2023/11/21 08:54:12;;;;;;;0.93;0.73;;;18.10;53.50;;;;;;6167880;23;20438;-82
2023/11/21 08:59:04;;;;;;;1.20;0.88;;;18.10;53.10;;;;;;6191058;23;20309;-82
2023/11/21 09:01:33;;;;;;;1.05;0.93;;;18.20;53.10;;;;;;6165364;23;20135;-83
2023/11/21 09:09:08;;;;;;;0.80;0.77;;;18.10;53.80;;;;;;6162140;23;20522;-83
2023/11/21 09:11:36;;;;;;;1.20;0.75;;;18.10;53.60;;;;;;6161025;23;20129;-83
2023/11/21 09:14:04;;;;;;;3.47;0.85;;;18.10;53.40;;;;;;6109689;23;20591;-82
2023/11/21 09:16:31;;;;;;;1.10;0.75;;;18.20;53.50;;;;;;6110872;23;20187;-82
2023/11/21 09:18:57;;;;;;;0.80;0.70;;;18.20;53.00;;;;;;6136054;23;20134;-83
2023/11/21 09:23:50;;;;;;;1.80;0.77;;;18.30;52.70;;;;;;6191431;23;20217;-83
2023/11/21 09:26:17;;;;;;;1.35;1.02;;;18.30;52.80;;;;;;6192363;23;20139;-84
2023/11/21 09:28:46;;;;;;;0.82;0.80;;;18.30;52.60;;;;;;6192551;23;20215;-83
2023/11/21 09:31:12;;;;;;;0.80;0.80;;;18.30;52.80;;;;;;6167332;23;20134;-83
2023/11/21 09:33:42;;;;;;;1.55;0.73;;;18.30;52.90;;;;;;6191658;23;20143;-83
2023/11/21 09:36:13;;;;;;;2.47;0.80;;;18.20;53.00;;;;;;6141382;23;20186;-82
2023/11/21 09:38:39;;;;;;;1.02;0.80;;;18.30;52.80;;;;;;6166336;23;20155;-82
2023/11/21 10:37:20;;;;;;;1.25;0.85;;;18.40;53.00;;;;;;6179679;23;20277;-81
2023/11/21 10:39:46;;;;;;;1.85;0.70;;;18.30;52.80;;;;;;6141399;23;20159;-83
2023/11/21 10:42:12;;;;;;;1.17;0.80;;;18.30;52.60;;;;;;6141376;23;20147;-81
2023/11/21 10:44:38;;;;;;;2.75;0.80;;;18.40;52.90;;;;;;6190248;23;20135;-81
2023/11/21 10:47:05;;;;;;;1.15;0.80;;;18.40;53.00;;;;;;6165417;23;20178;-81
2023/11/21 10:49:31;;;;;;;2.22;0.82;;;18.40;52.50;;;;;;6165300;23;20135;-82
2023/11/21 10:51:57;;;;;;;4.63;0.90;;;18.50;52.60;;;;;;6116432;23;20143;-81
2023/11/21 10:54:23;;;;;;;4.30;0.70;;;18.40;53.10;;;;;;6164061;23;20142;-81
2023/11/21 10:56:51;;;;;;;1.33;0.70;;;18.40;52.90;;;;;;6139275;23;20183;-82
2023/11/21 10:59:17;;;;;;;1.92;0.75;;;18.40;53.00;;;;;;6188403;23;20586;-83
2023/11/21 11:01:44;;;;;;;1.40;0.90;;;18.40;52.80;;;;;;6163162;23;20198;-82
2023/11/21 12:05:58;;;;;;;1.33;0.60;;;18.50;52.30;;;;;;6164430;23;20213;-82
2023/11/21 12:08:30;;;;;;;0.82;0.70;;;18.50;52.60;;;;;;6100972;23;20163;-82
2023/11/21 12:10:57;;;;;;;0.57;0.57;;;18.50;53.00;;;;;;6100788;23;20797;-81
2023/11/21 12:13:23;;;;;;;0.90;0.80;;;18.40;53.60;;;;;;6124102;23;20192;-82
2023/11/21 12:15:49;;;;;;;0.82;0.70;;;18.40;52.90;;;;;;6126629;23;20296;-82
2023/11/21 12:18:14;;;;;;;1.55;0.80;;;18.50;53.10;;;;;;6102922;23;20152;-81
2023/11/21 12:27:14;;;;;;;0.75;0.68;;;18.30;53.00;;;;;;6247286;23;20197;-81
2023/11/21 12:29:41;;;;;;;0.85;0.75;;;18.50;53.60;;;;;;6199969;23;20136;-83
2023/11/21 12:32:07;;;;;;;0.55;0.55;;;18.50;53.20;;;;;;6247961;23;20215;-83
2023/11/21 12:34:33;;;;;;;1.85;0.60;;;18.50;53.00;;;;;;6196752;23;20168;-83
2023/11/21 12:37:00;;;;;;;2.90;1.00;;;18.50;53.10;;;;;;6172439;23;20173;-83
2023/11/21 12:39:27;;;;;;;6.85;0.80;;;18.50;52.50;;;;;;6221698;23;20507;-83
2023/11/21 12:41:54;;;;;;;5.57;1.00;;;18.50;52.50;;;;;;6198856;23;20126;-82
2023/11/21 12:45:05;;;;;;;3.03;0.80;;;18.60;53.00;;;;;;6199153;23;20132;-82
2023/11/21 12:47:35;;;;;;;9.27;1.08;;;18.60;53.10;;;;;;6250287;23;20149;-83
2023/11/21 12:50:02;;;;;;;4.40;0.90;;;18.50;53.40;;;;;;6248824;23;20126;-82
2023/11/21 12:52:32;;;;;;;5.15;0.85;;;18.40;53.70;;;;;;6221004;23;20142;-82
2023/11/21 12:54:58;;;;;;;3.60;0.82;;;18.40;53.60;;;;;;6143894;23;20153;-82
2023/11/21 12:57:27;;;;;;;3.58;0.60;;;18.50;52.90;;;;;;6221742;23;20173;-82
2023/11/21 12:59:58;;;;;;;2.58;0.63;;;18.50;53.50;;;;;;6222054;23;20155;-82
2023/11/21 13:02:27;;;;;;;2.55;0.90;;;18.50;53.30;;;;;;6196883;23;20141;-81
2023/11/21 13:04:54;;;;;;;3.40;0.70;;;18.50;53.10;;;;;;6221666;23;20475;-82
2023/11/21 13:07:22;;;;;;;1.88;0.63;;;18.50;53.20;;;;;;6195621;23;20532;-81
2023/11/21 13:09:48;;;;;;;1.05;0.63;;;18.50;53.00;;;;;;6196816;23;20220;-85
2023/11/21 13:12:13;;;;;;;0.70;0.60;;;18.50;53.50;;;;;;6196441;23;20209;-82
2023/11/21 13:14:40;;;;;;;2.05;0.63;;;18.40;53.50;;;;;;6218877;23;20168;-82
2023/11/21 13:17:06;;;;;;;1.02;0.73;;;18.50;53.40;;;;;;6194155;23;20177;-82
2023/11/21 13:19:31;;;;;;;0.82;0.70;;;18.50;52.70;;;;;;6246699;23;20584;-82
2023/11/21 13:21:58;;;;;;;4.00;0.82;;;18.60;53.50;;;;;;6217412;23;20216;-82
2023/11/21 13:24:25;;;;;;;3.45;0.80;;;18.50;53.30;;;;;;6198891;23;20198;-83
2023/11/21 13:26:52;;;;;;;2.45;0.80;;;18.50;52.90;;;;;;6150773;23;20190;-83
2023/11/21 13:29:21;;;;;;;1.77;0.65;;;18.50;53.20;;;;;;6133049;23;20186;-86
2023/11/21 13:31:55;;;;;;;1.00;0.88;;;18.50;53.40;;;;;;6183013;23;20154;-84
2023/11/21 13:34:27;;;;;;;1.55;0.68;;;18.50;53.50;;;;;;6109098;23;20153;-84
2023/11/21 13:36:58;;;;;;;4.53;0.93;;;18.50;52.70;;;;;;6161075;23;20571;-84
2023/11/21 13:39:25;;;;;;;2.03;1.05;;;18.60;53.20;;;;;;6184388;23;20138;-85
2023/11/21 13:41:54;;;;;;;2.97;0.73;;;18.50;53.10;;;;;;6182870;23;20496;-82
2023/11/21 13:44:34;;;;;;;5.47;1.05;;;18.50;53.40;;;;;;6182587;23;20503;-83
2023/11/21 13:47:00;;;;;;;7.50;1.00;;;18.50;53.10;;;;;;6183218;23;20130;-86
2023/11/21 13:49:26;;;;;;;4.00;0.93;;;18.50;53.40;;;;;;6183156;23;20161;-84
2023/11/21 13:51:54;;;;;;;4.78;0.80;;;18.50;53.60;;;;;;6156789;23;20146;-82
2023/11/21 13:54:23;;;;;;;5.25;1.30;;;18.50;53.00;;;;;;6182832;23;20131;-83
2023/11/21 13:56:50;;;;;;;7.68;0.77;;;18.50;53.40;;;;;;6157876;23;20502;-84
2023/11/21 13:59:22;;;;;;;2.33;0.73;;;18.50;53.00;;;;;;6185936;23;20140;-83
2023/11/21 14:01:57;;;;;;;4.00;0.80;;;18.50;52.90;;;;;;6157858;23;20173;-83
2023/11/21 14:09:49;;;;;;;2.00;0.70;;;18.60;53.60;;;;;;6185003;23;20149;-84
2023/11/21 14:12:15;;;;;;;1.65;0.70;;;18.50;53.60;;;;;;6184681;23;20685;-83
2023/11/21 14:14:41;;;;;;;2.05;0.63;;;18.50;53.70;;;;;;6184587;23;20159;-83
2023/11/21 14:17:07;;;;;;;3.33;0.82;;;18.50;53.60;;;;;;6187277;23;20173;-84
2023/11/21 14:19:34;;;;;;;2.45;0.70;;;18.50;53.40;;;;;;6159960;23;20140;-83
2023/11/21 14:22:01;;;;;;;1.95;0.68;;;18.50;53.30;;;;;;6183384;23;20166;-84
2023/11/21 14:24:29;;;;;;;1.65;0.63;;;18.60;53.50;;;;;;6157039;23;20216;-83
2023/11/21 14:26:54;;;;;;;3.95;0.80;;;18.50;53.70;;;;;;6157229;23;20169;-83
2023/11/21 14:29:20;;;;;;;5.13;0.88;;;18.50;53.60;;;;;;6158751;23;20147;-83
2023/11/21 14:31:46;;;;;;;2.58;0.80;;;18.50;53.10;;;;;;6188870;23;20135;-82
2023/11/21 14:34:13;;;;;;;3.97;0.50;;;18.60;53.30;;;;;;6182747;23;20155;-84
2023/11/21 14:36:39;;;;;;;2.63;0.70;;;18.60;53.40;;;;;;6160197;23;20171;-82
2023/11/21 14:39:09;;;;;;;2.85;0.90;;;18.60;53.60;;;;;;6185956;23;20195;-82
2023/11/21 14:41:38;;;;;;;2.70;0.70;;;18.50;53.00;;;;;;6134535;23;20166;-80
2023/11/21 14:44:07;;;;;;;4.05;0.95;;;18.50;53.60;;;;;;6159681;23;20135;-82
2023/11/21 14:46:34;;;;;;;1.20;0.73;;;18.50;53.40;;;;;;6184402;23;20570;-82
2023/11/21 14:49:19;;;;;;;2.35;0.80;;;18.50;53.20;;;;;;6184572;23;20178;-83
2023/11/21 14:52:00;;;;;;;0.75;0.70;;;18.60;53.50;;;;;;6140288;23;20229;-83
2023/11/21 14:54:46;;;;;;;3.30;0.68;;;18.60;53.30;;;;;;6113435;23;20154;-82
2023/11/21 14:57:20;;;;;;;0.60;0.60;;;18.50;53.40;;;;;;6184854;23;20174;-83
2023/11/21 14:59:48;;;;;;;1.35;0.82;;;18.50;53.30;;;;;;6109242;23;20497;-84
2023/11/21 15:04:42;;;;;;;1.25;0.70;;;18.60;53.30;;;;;;6179803;23;20226;-84
2023/11/21 15:07:27;;;;;;;3.25;0.63;;;18.60;53.60;;;;;;6159511;23;20191;-85
2023/11/21 15:09:53;;;;;;;2.80;0.70;;;18.50;53.70;;;;;;6158159;23;20579;-82
2023/11/21 15:12:26;;;;;;;0.98;0.65;;;18.50;52.70;;;;;;6136442;23;20150;-82
2023/11/21 15:14:55;;;;;;;0.70;0.70;;;18.60;53.00;;;;;;6113552;23;20246;-82
2023/11/21 15:18:00;;;;;;;3.50;0.85;;;18.50;52.50;;;;;;6142426;23;20209;-84
2023/11/21 15:23:40;;;;;;;1.08;0.60;;;18.50;52.90;;;;;;6018501;23;20151;-83
2023/11/21 15:26:08;;;;;;;1.40;0.63;;;18.50;53.30;;;;;;6018071;23;20170;-82
2023/11/21 15:28:36;;;;;;;1.77;0.95;;;18.50;53.30;;;;;;6016999;23;20499;-83
2023/11/21 15:31:08;;;;;;;2.15;0.77;;;18.50;53.30;;;;;;6016528;23;20147;-84
2023/11/21 15:33:37;;;;;;;2.60;0.93;;;18.50;53.00;;;;;;6016834;23;20634;-83
2023/11/21 15:39:30;;;;;;;0.80;0.60;;;18.50;53.50;;;;;;5932780;24;20160;-83
2023/11/21 15:41:56;;;;;;;1.63;0.55;;;18.50;53.30;;;;;;5932527;24;20153;-84
2023/11/21 15:44:29;;;;;;;1.35;0.70;;;18.60;53.60;;;;;;5931448;24;20164;-82
2023/11/21 15:47:06;;;;;;;;;;;;;;;;;;;;;
2023/11/21 15:49:36;;;;;;;1.73;0.60;;;18.60;54.00;;;;;;5896022;24;20195;-82
2023/11/21 15:52:06;;;;;;;1.38;0.60;;;18.50;53.50;;;;;;5931156;24;20157;-83
2023/11/21 15:54:51;;;;;;;1.02;0.80;;;18.60;53.70;;;;;;5933343;24;20168;-81
2023/11/21 16:07:46;;;;;;;3.90;0.95;;;18.70;53.00;;;;;;6022253;23;20281;-84
2023/11/21 16:11:23;;;;;;;0.77;0.60;;;18.70;53.00;;;;;;5975445;23;20170;-85
2023/11/21 16:13:56;;;;;;;1.30;1.00;;;18.70;53.40;;;;;;6019009;23;20170;-85
2023/11/21 16:16:52;;;;;;;1.15;0.82;;;18.60;53.60;;;;;;6061771;23;20174;-85
2023/11/21 16:19:40;;;;;;;1.25;0.80;;;18.60;53.70;;;;;;6144923;23;20283;-85
2023/11/21 16:22:50;;;;;;;2.25;0.80;;;18.70;54.30;;;;;;6092503;23;20203;-86
2023/11/21 16:25:52;;;;;;;;;;;;;;;;;;;;;
2023/11/21 16:28:43;;;;;;;5.50;0.60;;;18.70;53.30;;;;;;6091145;23;20156;-85
2023/11/21 16:31:38;;;;;;;1.02;0.80;;;18.80;54.20;;;;;;6137621;23;20226;-84
2023/11/21 16:34:50;;;;;;;2.70;0.70;;;18.80;54.20;;;;;;6036284;23;20627;-85
2023/11/21 16:37:59;;;;;;;2.67;1.00;;;18.80;55.10;;;;;;5997889;23;20194;-82
2023/11/21 16:40:52;;;;;;;1.63;0.80;;;18.80;54.70;;;;;;6014699;23;20182;-83
2023/11/21 16:43:24;;;;;;;5.90;1.00;;;18.80;54.10;;;;;;5990417;23;20249;-83
2023/11/21 16:45:55;;;;;;;2.70;0.85;;;18.80;54.50;;;;;;6013876;23;20155;-83
2023/11/21 16:48:20;;;;;;;1.95;0.82;;;18.80;54.70;;;;;;5990579;23;20154;-83
2023/11/21 16:50:51;;;;;;;4.10;1.05;;;18.70;54.70;;;;;;5983684;24;20603;-83
2023/11/21 16:53:20;;;;;;;3.85;0.80;;;18.70;55.30;;;;;;5961878;24;20337;-83
2023/11/21 16:55:57;;;;;;;3.47;0.82;;;18.70;54.80;;;;;;5962235;24;20227;-84
2023/11/21 16:58:25;;;;;;;4.32;0.90;;;18.70;54.80;;;;;;5964229;24;20158;-81
2023/11/21 17:00:54;;;;;;;6.95;0.95;;;18.80;54.90;;;;;;5969028;23;20163;-83
2023/11/21 17:03:31;;;;;;;;;;;;;;;;;;;;;
2023/11/21 17:06:08;;;;;;;9.38;1.40;;;18.80;54.60;;;;;;6094474;23;20190;-84
2023/11/21 17:08:41;;;;;;;6.57;1.42;;;18.80;55.20;;;;;;6083209;23;20284;-82
2023/11/21 17:11:13;;;;;;;14.43;1.50;;;18.80;54.90;;;;;;6030299;23;20165;-82
2023/11/21 17:13:59;;;;;;;6.03;1.20;;;18.80;55.30;;;;;;6055148;23;20156;-82
2023/11/21 17:16:36;;;;;;;9.00;1.10;;;18.90;54.80;;;;;;6034639;23;20247;-81
2023/11/21 17:19:25;;;;;;;7.80;1.83;;;18.90;55.30;;;;;;6028768;23;20215;-83
2023/11/21 17:22:20;;;;;;;7.00;1.42;;;18.80;55.70;;;;;;6109458;23;20218;-82
2023/11/21 17:25:01;;;;;;;;;;;;;;;;;;;;;
2023/11/21 17:28:35;;;;;;;6.22;1.20;;;18.80;55.40;;;;;;6049381;23;20744;-81
2023/11/21 17:30:44;;;;;;;6.05;1.50;;;18.70;54.20;;;;;;6044576;23;20165;-83
2023/11/21 17:33:10;;;;;;;7.10;1.40;;;18.70;54.30;;;;;;6046879;23;20149;-82
2023/11/21 17:35:36;;;;;;;10.73;1.60;;;18.80;54.10;;;;;;5998434;23;20284;-82
2023/11/21 17:38:05;;;;;;;6.63;1.25;;;18.80;54.80;;;;;;6068258;23;20169;-84
2023/11/21 17:40:40;;;;;;;7.93;1.40;;;18.80;54.30;;;;;;5998498;23;20154;-83
2023/11/21 17:43:28;;;;;;;6.05;1.17;;;18.80;53.90;;;;;;6021042;23;20163;-83
2023/11/21 17:45:55;;;;;;;7.85;1.30;;;18.80;54.00;;;;;;6025244;23;20180;-84
2023/11/21 17:48:21;;;;;;;3.97;1.38;;;18.80;54.30;;;;;;6044126;23;20153;-83
2023/11/21 17:50:46;;;;;;;7.10;1.42;;;18.70;55.70;;;;;;6021300;23;20189;-83
2023/11/21 17:53:12;;;;;;;4.65;1.30;;;18.80;55.40;;;;;;6022407;23;20149;-83
2023/11/21 17:55:38;;;;;;;5.65;0.95;;;18.70;55.10;;;;;;6002115;23;20153;-83
2023/11/21 17:58:06;;;;;;;9.48;1.70;;;18.70;55.10;;;;;;6048925;23;20176;-84
2023/11/21 18:00:57;;;;;;;8.82;1.40;;;18.70;56.40;;;;;;6047164;23;20233;-85
2023/11/21 18:03:23;;;;;;;4.20;1.30;;;18.70;56.90;;;;;;6133627;23;20152;-82
2023/11/21 18:05:49;;;;;;;4.63;1.05;;;18.70;56.70;;;;;;6132343;23;20136;-82
2023/11/21 18:08:18;;;;;;;6.53;1.30;;;18.60;55.50;;;;;;6143039;23;20254;-83
2023/11/21 18:10:47;;;;;;;8.27;1.15;;;18.60;55.80;;;;;;6114254;23;20189;-83
2023/11/21 18:13:13;;;;;;;7.25;1.40;;;18.70;54.90;;;;;;6138872;23;20206;-84
2023/11/21 18:15:44;;;;;;;4.43;1.15;;;18.70;55.40;;;;;;6162778;23;20191;-82
2023/11/21 18:18:10;;;;;;;7.30;1.17;;;18.70;55.40;;;;;;6166030;23;20141;-83
2023/11/21 18:20:36;;;;;;;7.80;1.30;;;18.60;55.20;;;;;;6140764;23;20507;-81
2023/11/21 18:23:10;;;;;;;4.85;1.23;;;18.70;55.10;;;;;;6142643;23;20566;-83
2023/11/21 18:26:09;;;;;;;;;;;;;;;;;;;;;
2023/11/21 18:28:39;;;;;;;7.00;1.10;;;18.60;55.60;;;;;;6144370;23;20532;-83
2023/11/21 18:31:14;;;;;;;2.13;0.90;;;18.60;55.00;;;;;;6189069;23;20138;-82
2023/11/21 18:33:40;;;;;;;2.55;1.05;;;18.50;55.30;;;;;;6115182;23;20176;-82
2023/11/21 18:36:08;;;;;;;5.15;1.15;;;18.60;54.80;;;;;;6165951;23;20243;-83
2023/11/21 18:38:33;;;;;;;13.95;1.42;;;18.60;55.00;;;;;;6140166;23;20157;-83
2023/11/21 18:41:00;;;;;;;4.93;1.27;;;18.50;55.70;;;;;;6140682;23;20202;-83
2023/11/21 18:43:30;;;;;;;10.15;1.23;;;18.40;54.90;;;;;;6166941;23;20229;-83
2023/11/21 18:46:02;;;;;;;3.72;1.10;;;18.50;54.70;;;;;;6118210;23;20154;-83
2023/11/21 18:48:27;;;;;;;4.40;0.98;;;18.60;54.90;;;;;;6119536;23;20147;-82
2023/11/21 18:50:54;;;;;;;3.22;1.52;;;18.60;55.50;;;;;;6167218;23;20135;-83
2023/11/21 18:53:22;;;;;;;4.57;0.95;;;18.60;55.90;;;;;;6141198;23;20158;-83
2023/11/21 18:55:48;;;;;;;7.18;1.15;;;18.50;55.60;;;;;;6144137;23;20146;-84
2023/11/21 18:58:15;;;;;;;3.17;1.23;;;18.50;55.80;;;;;;6193678;23;20136;-85
2023/11/21 19:00:41;;;;;;;8.48;1.52;;;18.50;55.60;;;;;;6145904;23;20174;-85
2023/11/21 19:03:09;;;;;;;9.65;1.45;;;18.50;55.30;;;;;;6168129;23;20151;-84
2023/11/21 19:05:39;;;;;;;3.33;1.25;;;18.50;55.10;;;;;;6170943;23;20131;-87
2023/11/21 19:08:06;;;;;;;3.65;1.10;;;18.40;54.70;;;;;;6168891;23;20194;-83
2023/11/21 19:10:37;;;;;;;3.95;1.08;;;18.50;54.50;;;;;;6143935;23;20195;-85
2023/11/21 19:13:05;;;;;;;3.92;1.17;;;18.60;54.40;;;;;;6115911;23;20170;-87
2023/11/21 19:15:31;;;;;;;3.97;1.00;;;18.50;55.40;;;;;;6139518;23;20474;-84
2023/11/21 19:18:00;;;;;;;3.58;1.02;;;18.60;55.50;;;;;;6165660;23;20171;-86
2023/11/21 19:20:25;;;;;;;6.10;1.30;;;18.60;55.50;;;;;;6141729;23;20173;-86
2023/11/21 19:23:00;;;;;;;4.65;0.80;;;18.60;55.10;;;;;;6138287;23;20150;-86
2023/11/21 19:25:26;;;;;;;3.25;1.08;;;18.60;54.90;;;;;;6138834;23;20150;-86
2023/11/21 19:27:51;;;;;;;3.75;1.17;;;18.60;55.40;;;;;;6165528;23;20173;-84
2023/11/21 19:30:17;;;;;;;3.88;1.40;;;18.60;55.10;;;;;;6163661;23;20165;-85
2023/11/21 19:32:44;;;;;;;6.43;1.10;;;18.60;55.50;;;;;;6138430;23;20268;-83
2023/11/21 19:35:10;;;;;;;4.15;1.00;;;18.60;55.30;;;;;;6164985;23;20570;-84
2023/11/21 19:37:36;;;;;;;4.15;1.10;;;18.60;54.80;;;;;;6116416;23;20182;-82
2023/11/21 19:40:03;;;;;;;4.60;1.30;;;18.60;55.20;;;;;;6163290;23;20139;-84
2023/11/21 19:42:29;;;;;;;5.55;1.25;;;18.60;55.10;;;;;;6190960;23;20131;-84
2023/11/21 19:44:55;;;;;;;7.30;1.30;;;18.60;54.40;;;;;;6144088;23;20234;-83
2023/11/21 19:47:21;;;;;;;5.30;1.30;;;18.50;54.60;;;;;;6143186;23;20162;-84